Time;durP1;ratioP1;P1;durP2;ratioP2;P2;SDS_P1;SDS_P2;PMS_P1;PMS_P2;Temp;Humidity;BMP_temperature;BMP_pressure;BME280_temperature;BME280_humidity;BME280_pressure;Samples;Min_cycle;Max_cycle;Signal;HPM_P1;HPM_P2
2022/01/23 00:00:05;;;;;;;22.25;9.88;;;;;;;-10.80;61.16;100853.38;5094231;28;20044;-75
2022/01/23 00:02:37;;;;;;;25.05;10.25;;;;;;;-10.78;60.94;100859.47;5077561;28;20064;-76
2022/01/23 00:05:07;;;;;;;27.30;10.38;;;;;;;-10.78;61.28;100854.31;5070626;28;20044;-76
2022/01/23 00:07:34;;;;;;;22.77;10.40;;;;;;;-10.76;61.37;100852.63;5075496;28;20064;-75
2022/01/23 00:10:01;;;;;;;23.95;10.68;;;;;;;-10.76;61.46;100860.38;5073651;28;20042;-75
2022/01/23 00:12:33;;;;;;;29.23;12.40;;;;;;;-10.76;61.23;100858.66;5057720;28;20060;-74
2022/01/23 00:17:43;;;;;;;23.30;11.15;;;;;;;-10.79;61.27;100860.31;5074540;28;20487;-75
2022/01/23 00:20:11;;;;;;;26.95;10.70;;;;;;;-10.79;61.26;100858.59;5091002;28;20036;-76
2022/01/23 00:30:35;;;;;;;27.60;11.35;;;;;;;-10.81;61.32;100875.75;5074049;28;20075;-76
2022/01/23 00:33:04;;;;;;;29.27;11.10;;;;;;;-10.83;61.18;100871.34;5073752;28;20101;-76
2022/01/23 00:35:31;;;;;;;25.77;11.63;;;;;;;-10.90;61.36;100864.28;5073936;28;20154;-76
2022/01/23 00:37:59;;;;;;;21.33;10.77;;;;;;;-10.83;61.08;100877.44;5040414;28;20036;-78
2022/01/23 00:40:27;;;;;;;27.83;10.63;;;;;;;-10.92;61.15;100865.91;5074979;28;20057;-76
2022/01/23 00:42:58;;;;;;;21.90;11.23;;;;;;;-10.88;61.63;100873.81;5057115;28;20487;-76
2022/01/23 00:47:54;;;;;;;28.02;11.65;;;;;;;-10.86;61.78;100876.47;5056739;28;20115;-78
2022/01/23 00:50:20;;;;;;;26.27;10.77;;;;;;;-10.82;61.31;100867.97;5073843;28;20048;-78
2022/01/23 00:52:46;;;;;;;24.38;11.45;;;;;;;-10.83;61.23;100863.59;5057119;28;20135;-78
2022/01/23 00:55:13;;;;;;;29.25;12.13;;;;;;;-10.86;61.24;100861.81;5073026;28;20048;-78
2022/01/23 00:57:38;;;;;;;26.00;10.45;;;;;;;-10.83;61.45;100871.34;5056866;28;20064;-78
2022/01/23 01:00:06;;;;;;;28.92;13.95;;;;;;;-10.88;61.35;100852.28;5088773;28;20073;-81
2022/01/23 01:02:32;;;;;;;27.27;12.05;;;;;;;-10.88;61.93;100852.28;5073225;28;20072;-77
2022/01/23 01:04:58;;;;;;;28.25;13.32;;;;;;;-10.86;61.47;100851.50;5056980;28;20044;-77
2022/01/23 01:07:24;;;;;;;33.78;14.98;;;;;;;-10.91;61.53;100862.50;5056515;28;20039;-77
2022/01/23 01:09:53;;;;;;;30.02;13.80;;;;;;;-10.93;61.63;100853.84;5040036;28;20487;-78
2022/01/23 01:12:24;;;;;;;31.52;14.65;;;;;;;-10.89;61.85;100863.44;5056839;28;20040;-78
2022/01/23 01:31:12;;;;;;;27.98;13.85;;;;;;;-10.81;61.40;100867.13;5078764;28;20055;-78
2022/01/23 01:33:50;;;;;;;32.47;14.68;;;;;;;-10.88;61.48;100866.06;5078780;28;20502;-78
2022/01/23 01:38:43;;;;;;;27.88;14.05;;;;;;;-10.79;61.23;100883.56;5076206;28;20403;-78
2022/01/23 01:41:09;;;;;;;30.15;14.30;;;;;;;-10.77;61.20;100892.22;5092578;28;20531;-78
2022/01/23 01:43:36;;;;;;;25.02;13.32;;;;;;;-10.79;61.13;100883.56;5059235;28;20052;-78
2022/01/23 01:46:03;;;;;;;23.75;13.77;;;;;;;-10.82;61.04;100886.03;5059270;28;20035;-78
2022/01/23 01:48:41;;;;;;;28.50;13.65;;;;;;;-10.81;61.45;100882.63;5075824;28;20040;-77
2022/01/23 01:51:15;;;;;;;31.70;14.25;;;;;;;-10.80;61.07;100877.50;5062333;28;20041;-80
2022/01/23 01:53:48;;;;;;;25.70;12.68;;;;;;;-10.81;61.03;100880.91;5056097;28;20098;-78
2022/01/23 01:56:14;;;;;;;31.95;12.73;;;;;;;-10.78;61.18;100887.91;5071851;28;20037;-77
2022/01/23 02:02:47;;;;;;;36.10;14.02;;;;;;;-10.81;61.09;100890.38;5043172;28;20051;-77
2022/01/23 02:10:09;;;;;;;30.67;13.70;;;;;;;-11.01;61.33;100880.31;5055672;28;20047;-77
2022/01/23 02:50:52;;;;;;;37.65;15.38;;;;;;;-11.59;62.47;100916.22;5071587;28;20094;-77
2022/01/23 02:56:14;;;;;;;37.28;16.08;;;;;;;-11.47;62.68;100897.69;5047611;28;20054;-76
2022/01/23 02:58:55;;;;;;;43.13;19.13;;;;;;;-11.43;62.57;100899.56;5056151;28;20372;-74
2022/01/23 03:01:24;;;;;;;38.10;14.27;;;;;;;-11.40;62.40;100904.81;5072354;28;20044;-73
2022/01/23 03:04:09;;;;;;;38.85;15.77;;;;;;;-11.44;61.81;100902.97;5071880;28;20036;-76
2022/01/23 03:07:10;;;;;;;41.67;15.68;;;;;;;-11.54;61.70;100894.94;5072959;28;20052;-76
2022/01/23 03:15:09;;;;;;;38.67;15.80;;;;;;;-11.66;61.86;100917.72;5057588;28;20044;-75
2022/01/23 03:28:26;;;;;;;65.13;24.27;;;;;;;-11.75;62.29;100889.91;5054626;28;20040;-76
2022/01/23 03:31:21;;;;;;;75.75;26.85;;;;;;;-11.76;62.35;100887.28;5055520;28;20290;-75
2022/01/23 03:33:47;;;;;;;77.07;29.98;;;;;;;-11.67;62.79;100892.75;5058846;28;20440;-75
2022/01/23 03:36:18;;;;;;;83.93;31.20;;;;;;;-11.68;62.86;100879.81;5071041;28;20048;-76
2022/01/23 03:38:45;;;;;;;85.32;31.63;;;;;;;-11.61;62.96;100877.50;5055036;28;20062;-75
2022/01/23 03:41:11;;;;;;;88.57;33.80;;;;;;;-11.60;63.27;100876.66;5072792;28;20408;-76
2022/01/23 03:43:39;;;;;;;110.65;35.88;;;;;;;-11.52;63.38;100872.63;5080107;28;20044;-76
2022/01/23 03:51:12;;;;;;;139.35;49.47;;;;;;;-11.45;63.15;100890.91;5074536;28;20173;-75
2022/01/23 03:53:45;;;;;;;94.97;39.78;;;;;;;-11.39;63.39;100893.69;5058983;28;20550;-76
2022/01/23 03:56:11;;;;;;;82.70;28.20;;;;;;;-11.34;63.43;100902.47;5074770;28;20127;-77
2022/01/23 03:58:40;;;;;;;74.78;27.80;;;;;;;-11.38;63.53;100890.28;5058396;28;20040;-76
2022/01/23 04:01:12;;;;;;;72.30;25.08;;;;;;;-11.33;63.11;100888.72;5042901;28;20051;-75
2022/01/23 04:03:39;;;;;;;57.85;22.25;;;;;;;-11.26;62.93;100898.41;5057747;28;20094;-76
2022/01/23 04:06:07;;;;;;;63.20;18.90;;;;;;;-11.29;63.28;100898.31;5074750;28;20136;-75
2022/01/23 04:08:35;;;;;;;55.30;19.63;;;;;;;-11.28;63.03;100910.41;5074133;28;20045;-77
2022/01/23 04:11:02;;;;;;;32.83;13.45;;;;;;;-11.31;62.88;100906.00;5057476;28;20052;-76
2022/01/23 04:13:40;;;;;;;27.13;11.18;;;;;;;-11.23;63.30;100921.75;5041207;28;20070;-76
2022/01/23 04:16:38;;;;;;;37.42;12.77;;;;;;;-11.14;63.68;100914.28;5076201;28;20048;-76
2022/01/23 04:19:13;;;;;;;39.38;14.32;;;;;;;-11.11;63.70;100911.81;5061004;28;20109;-76
2022/01/23 04:47:03;;;;;;;59.33;17.88;;;;;;;-12.00;60.36;100964.66;5045849;28;20040;-77
2022/01/23 05:00:11;;;;;;;27.92;14.40;;;;;;;-12.93;63.57;101008.31;5042526;28;20044;-75
2022/01/23 05:05:38;;;;;;;50.38;19.42;;;;;;;-13.63;64.00;101013.06;5053003;28;20068;-74
2022/01/23 05:08:27;;;;;;;40.42;19.92;;;;;;;-13.71;64.38;101020.44;5052410;28;20052;-76
2022/01/23 05:11:12;;;;;;;48.80;22.10;;;;;;;-13.85;64.43;101022.41;5073424;28;20500;-77
2022/01/23 05:13:49;;;;;;;65.25;21.27;;;;;;;-13.99;64.34;101013.19;5058039;28;20045;-76
2022/01/23 05:16:16;;;;;;;47.28;18.58;;;;;;;-14.19;64.91;101009.72;5073037;28;20066;-77
2022/01/23 05:18:42;;;;;;;67.45;24.98;;;;;;;-14.25;65.93;101015.47;5072760;28;20171;-77
2022/01/23 05:21:40;;;;;;;87.85;29.27;;;;;;;-14.05;65.86;101007.78;5023579;28;20138;-76
2022/01/23 05:23:57;;;;;;;76.65;27.70;;;;;;;-13.85;66.35;101008.66;5045922;28;20102;-76
2022/01/23 05:26:23;;;;;;;55.45;22.50;;;;;;;-13.61;66.01;101008.84;5056327;28;20037;-77
2022/01/23 05:28:49;;;;;;;55.88;25.05;;;;;;;-13.48;66.68;101006.91;5072529;28;20488;-77
2022/01/23 05:31:15;;;;;;;56.53;24.58;;;;;;;-13.36;67.56;101003.09;5022848;28;20143;-76
2022/01/23 05:33:43;;;;;;;71.53;26.92;;;;;;;-13.36;68.23;100992.81;5089356;28;20052;-76
2022/01/23 05:36:10;;;;;;;92.32;28.80;;;;;;;-13.10;68.55;100994.72;5039483;28;20048;-75
2022/01/23 05:38:36;;;;;;;96.15;35.20;;;;;;;-12.70;67.63;100996.38;5039702;28;20060;-79
2022/01/23 05:41:03;;;;;;;73.55;28.60;;;;;;;-12.29;67.01;101007.41;5074856;28;20044;-77
2022/01/23 05:43:29;;;;;;;94.60;32.53;;;;;;;-12.10;66.32;100999.56;5055852;28;20051;-74
2022/01/23 05:45:55;;;;;;;95.57;34.70;;;;;;;-11.76;65.84;100993.03;5038772;28;20072;-77
2022/01/23 05:48:41;;;;;;;108.38;35.05;;;;;;;-11.28;65.18;100993.00;5031029;28;20045;-76
2022/01/23 05:51:12;;;;;;;97.72;35.63;;;;;;;-10.98;64.08;100984.50;5072311;28;20049;-77
2022/01/23 05:53:54;;;;;;;114.70;36.88;;;;;;;-10.70;63.51;100986.31;5057856;28;20040;-78
2022/01/23 05:56:31;;;;;;;84.50;31.13;;;;;;;-10.53;63.48;100980.84;5043605;28;20090;-78
2022/01/23 05:59:29;;;;;;;107.37;37.33;;;;;;;-10.36;62.94;100983.06;5037081;28;20055;-78
2022/01/23 06:01:56;;;;;;;98.88;35.92;;;;;;;-9.96;62.80;101002.34;5038999;28;20044;-77
2022/01/23 06:04:35;;;;;;;;;;;;;;;-9.66;62.09;101000.63;5043500;28;20076;-78
2022/01/23 06:07:08;;;;;;;104.03;37.22;;;;;;;-9.46;61.66;100998.56;5039304;28;19916;-79
2022/01/23 06:09:41;;;;;;;107.60;38.20;;;;;;;-9.22;61.41;101013.88;5024857;28;20056;-79
2022/01/23 06:12:08;;;;;;;114.45;41.35;;;;;;;-9.15;61.03;101010.63;5022736;28;20462;-78
2022/01/23 06:14:35;;;;;;;120.07;41.38;;;;;;;-8.96;61.19;101016.28;5038959;28;20131;-78
2022/01/23 06:17:01;;;;;;;117.63;39.95;;;;;;;-8.82;61.23;101015.78;5038684;28;20475;-75
2022/01/23 06:19:45;;;;;;;125.70;40.50;;;;;;;-8.61;60.82;101010.28;5029742;28;20044;-75
2022/01/23 06:22:47;;;;;;;102.20;39.95;;;;;;;-8.32;60.02;101012.63;5033896;28;20045;-77
2022/01/23 06:25:43;;;;;;;105.00;36.72;;;;;;;-8.35;59.50;101002.19;4989677;28;20049;-77
2022/01/23 06:28:53;;;;;;;111.60;41.17;;;;;;;-8.01;60.11;101022.00;5026145;28;20040;-75
2022/01/23 06:31:19;;;;;;;114.28;41.50;;;;;;;-7.79;59.76;101027.63;5057667;28;20149;-77
2022/01/23 06:33:46;;;;;;;108.47;40.70;;;;;;;-7.69;58.99;101038.25;5088558;28;20044;-77
2022/01/23 06:36:12;;;;;;;90.53;33.45;;;;;;;-7.80;58.38;101050.13;5072645;28;20040;-77
2022/01/23 06:38:38;;;;;;;130.68;43.97;;;;;;;-7.59;59.09;101058.38;5038158;28;20037;-76
2022/01/23 06:41:05;;;;;;;116.75;44.03;;;;;;;-7.29;57.92;101059.84;5088856;28;20430;-77
2022/01/23 06:43:46;;;;;;;133.48;43.22;;;;;;;-7.70;56.97;101044.28;5046624;28;20041;-78
2022/01/23 06:46:18;;;;;;;139.55;45.03;;;;;;;-7.68;57.40;101049.50;5040759;28;20052;-77
2022/01/23 06:48:44;;;;;;;122.90;43.70;;;;;;;-7.42;56.86;101045.72;5089834;28;20124;-77
2022/01/23 06:51:10;;;;;;;132.85;42.80;;;;;;;-7.38;56.35;101049.25;5072078;28;20499;-78
2022/01/23 06:53:37;;;;;;;128.90;45.97;;;;;;;-7.20;56.29;101046.16;5038710;28;20036;-77
2022/01/23 06:56:03;;;;;;;133.32;48.25;;;;;;;-7.03;55.83;101054.25;5071297;28;20040;-77
2022/01/23 06:58:30;;;;;;;131.60;48.38;;;;;;;-6.85;55.17;101049.38;5038251;28;20392;-77
2022/01/23 07:00:56;;;;;;;143.70;49.67;;;;;;;-6.69;54.16;101048.84;5054543;28;20040;-78
2022/01/23 07:03:45;;;;;;;;;;;;;;;-6.69;53.25;101046.22;5072052;28;20041;-75
2022/01/23 07:06:31;;;;;;;131.77;47.17;;;;;;;-6.88;53.91;101054.56;5056531;28;19916;-78
2022/01/23 07:09:16;;;;;;;121.53;47.50;;;;;;;-7.44;53.95;101062.13;5043461;28;20467;-78
2022/01/23 07:12:02;;;;;;;127.00;49.15;;;;;;;-7.22;54.94;101058.22;5071009;28;20055;-78
2022/01/23 07:14:54;;;;;;;150.38;47.42;;;;;;;-7.12;54.74;101055.84;5057666;28;20197;-78
2022/01/23 07:17:40;;;;;;;119.90;45.13;;;;;;;-6.84;54.25;101048.56;5071475;28;20094;-78
2022/01/23 07:20:19;;;;;;;130.90;51.55;;;;;;;-6.65;53.15;101040.22;5060139;28;20040;-77
2022/01/23 07:22:45;;;;;;;120.50;45.15;;;;;;;-6.52;52.65;101040.44;5025423;28;20040;-78
2022/01/23 07:25:11;;;;;;;102.90;42.30;;;;;;;-6.62;52.28;101029.88;5058825;28;20040;-75
2022/01/23 07:27:43;;;;;;;133.52;49.20;;;;;;;-6.43;52.98;101035.34;5043892;28;20080;-79
2022/01/23 07:30:22;;;;;;;131.32;47.13;;;;;;;-6.35;52.62;101025.97;5045187;28;20049;-77
2022/01/23 07:32:49;;;;;;;134.27;53.47;;;;;;;-6.14;51.79;101044.50;5076966;28;20131;-78
2022/01/23 07:35:15;;;;;;;137.10;55.83;;;;;;;-5.99;51.63;101032.56;5075120;28;20067;-77
2022/01/23 07:37:41;;;;;;;137.57;56.65;;;;;;;-5.80;51.33;101041.47;5041635;28;20044;-77
2022/01/23 07:40:37;;;;;;;149.60;55.90;;;;;;;-5.65;51.04;101039.94;5062164;28;20119;-78
2022/01/23 07:43:10;;;;;;;169.38;62.05;;;;;;;-5.54;50.26;101044.41;5075064;28;20476;-77
2022/01/23 07:45:59;;;;;;;155.75;61.22;;;;;;;-5.46;49.89;101040.16;5061144;28;20438;-77
2022/01/23 07:48:44;;;;;;;145.63;58.45;;;;;;;-5.39;49.49;101042.00;5046505;28;20109;-77
2022/01/23 07:51:29;;;;;;;138.57;54.10;;;;;;;-5.36;48.87;101042.03;5074278;28;20076;-76
2022/01/23 07:54:02;;;;;;;123.47;49.17;;;;;;;-5.34;48.55;101031.63;5043051;28;20127;-76
2022/01/23 07:57:00;;;;;;;114.20;45.03;;;;;;;-5.35;48.57;101042.91;5028042;28;20427;-77
2022/01/23 07:59:45;;;;;;;109.40;45.10;;;;;;;-5.40;48.86;101041.13;5046417;28;20607;-78
2022/01/23 08:02:26;;;;;;;104.15;42.03;;;;;;;-5.49;48.40;101040.13;5074358;28;20499;-77
2022/01/23 08:05:13;;;;;;;94.60;39.92;;;;;;;-5.47;48.68;101044.50;5073747;28;20088;-77
2022/01/23 08:07:48;;;;;;;79.50;38.25;;;;;;;-5.59;48.47;101033.94;5058777;28;20488;-77
2022/01/23 08:10:27;;;;;;;94.65;38.47;;;;;;;-5.67;48.19;101040.78;5044618;28;20547;-77
2022/01/23 08:12:53;;;;;;;87.88;38.30;;;;;;;-5.68;48.58;101050.34;5040807;28;20104;-77
2022/01/23 08:15:19;;;;;;;78.18;34.95;;;;;;;-5.64;48.49;101052.13;5057274;28;20232;-76
2022/01/23 08:17:45;;;;;;;88.28;38.03;;;;;;;-5.66;48.40;101053.81;5056882;28;20067;-78
2022/01/23 08:20:11;;;;;;;94.35;37.72;;;;;;;-5.64;48.58;101046.91;5040742;28;20040;-78
2022/01/23 08:22:37;;;;;;;80.80;37.33;;;;;;;-5.58;48.22;101055.66;5040687;28;20052;-77
2022/01/23 08:25:04;;;;;;;92.55;37.72;;;;;;;-5.53;48.02;101053.97;5040530;28;20512;-77
2022/01/23 08:27:30;;;;;;;85.35;37.53;;;;;;;-5.48;48.19;101055.78;5040668;28;20037;-77
2022/01/23 08:29:57;;;;;;;89.22;39.22;;;;;;;-5.40;47.86;101053.28;5073103;28;20075;-78
2022/01/23 08:32:23;;;;;;;82.45;36.55;;;;;;;-5.38;47.58;101049.84;5056991;28;20509;-77
2022/01/23 08:34:49;;;;;;;80.07;36.58;;;;;;;-5.51;47.29;101042.72;5040305;28;20127;-78
2022/01/23 08:37:15;;;;;;;103.82;37.50;;;;;;;-5.52;47.37;101050.53;5040472;28;20510;-78
2022/01/23 08:39:42;;;;;;;75.85;34.75;;;;;;;-5.48;47.71;101052.31;5056884;28;20071;-77
2022/01/23 08:42:10;;;;;;;81.53;34.90;;;;;;;-5.46;47.66;101066.22;5073480;28;20037;-76
2022/01/23 08:44:36;;;;;;;78.28;33.92;;;;;;;-5.60;47.04;101071.28;5057100;28;20044;-76
2022/01/23 08:47:03;;;;;;;103.38;38.67;;;;;;;-5.75;46.81;101071.94;5089981;28;20071;-77
2022/01/23 08:49:29;;;;;;;126.30;43.50;;;;;;;-5.88;46.66;101070.88;5090014;28;20131;-78
2022/01/23 08:51:56;;;;;;;108.07;39.75;;;;;;;-5.86;47.06;101056.16;5073285;28;20449;-77
2022/01/23 08:54:22;;;;;;;101.50;38.90;;;;;;;-5.79;47.11;101059.75;5072680;28;20048;-78
2022/01/23 08:56:48;;;;;;;101.90;35.97;;;;;;;-5.68;47.04;101059.84;5039916;28;20094;-78
2022/01/23 08:59:14;;;;;;;87.20;36.90;;;;;;;-5.54;46.91;101073.94;5039783;28;20127;-79
2022/01/23 09:01:40;;;;;;;81.97;33.47;;;;;;;-5.83;47.19;101075.28;5023325;28;20036;-78
2022/01/23 09:04:07;;;;;;;70.85;32.03;;;;;;;-5.71;47.47;101072.88;5073326;28;20562;-78
2022/01/23 09:06:33;;;;;;;72.35;31.33;;;;;;;-5.57;46.89;101078.25;5072850;28;20040;-77
2022/01/23 09:09:00;;;;;;;69.75;32.42;;;;;;;-5.50;46.48;101080.06;5056553;28;20128;-77
2022/01/23 09:14:07;;;;;;;75.45;32.92;;;;;;;-5.44;47.03;101082.78;5056979;28;20131;-78
2022/01/23 09:16:35;;;;;;;69.90;33.50;;;;;;;-5.35;46.93;101077.66;5073140;28;20037;-76
2022/01/23 09:19:01;;;;;;;76.70;33.50;;;;;;;-5.34;46.99;101071.63;5072908;28;20059;-77
2022/01/23 09:21:27;;;;;;;75.55;32.08;;;;;;;-5.31;47.19;101061.19;5072822;28;20040;-77
2022/01/23 09:23:53;;;;;;;85.00;31.50;;;;;;;-5.27;46.87;101067.31;5056080;28;20054;-78
2022/01/23 09:26:22;;;;;;;68.70;31.33;;;;;;;-5.19;47.22;101063.97;5089526;28;20075;-77
2022/01/23 09:28:48;;;;;;;62.25;33.85;;;;;;;-5.26;47.42;101069.09;5040372;28;20044;-77
2022/01/23 09:31:26;;;;;;;77.05;35.97;;;;;;;-5.33;47.55;101073.34;5055591;28;20043;-79
2022/01/23 09:33:52;;;;;;;68.40;32.67;;;;;;;-5.18;47.70;101076.16;5026195;28;20040;-78
2022/01/23 09:36:18;;;;;;;72.45;34.50;;;;;;;-4.98;47.50;101080.72;5039513;28;20557;-78
2022/01/23 09:38:45;;;;;;;80.30;35.63;;;;;;;-4.80;46.89;101075.69;5072376;28;20075;-78
2022/01/23 09:41:11;;;;;;;86.97;39.55;;;;;;;-4.62;46.80;101074.13;5054856;28;20044;-78
2022/01/23 09:43:39;;;;;;;90.50;39.20;;;;;;;-4.51;46.69;101075.97;5038943;28;20515;-78
2022/01/23 09:46:06;;;;;;;100.50;43.35;;;;;;;-4.41;46.61;101072.56;5072323;28;20040;-77
2022/01/23 09:48:33;;;;;;;119.75;49.58;;;;;;;-4.27;45.84;101071.81;5072391;28;20044;-78
2022/01/23 09:50:59;;;;;;;133.70;52.85;;;;;;;-4.19;46.08;101065.78;5055848;28;20048;-77
2022/01/23 09:53:25;;;;;;;142.07;55.67;;;;;;;-4.05;45.51;101063.28;5055624;28;20044;-77
2022/01/23 09:55:53;;;;;;;131.50;52.00;;;;;;;-3.97;45.93;101061.59;5055758;28;20373;-76
2022/01/23 09:58:19;;;;;;;118.05;50.25;;;;;;;-3.88;45.75;101072.97;5040139;28;20041;-79
2022/01/23 10:00:46;;;;;;;122.35;53.13;;;;;;;-3.95;45.50;101072.94;5056326;28;20048;-77
2022/01/23 10:03:12;;;;;;;128.73;52.08;;;;;;;-4.07;45.90;101074.56;5055412;28;20546;-77
2022/01/23 10:05:38;;;;;;;124.63;50.15;;;;;;;-4.21;46.48;101071.88;5038890;28;20044;-77
2022/01/23 10:08:06;;;;;;;134.15;50.55;;;;;;;-4.34;46.24;101068.28;5038789;28;20032;-78
2022/01/23 10:10:38;;;;;;;125.65;50.72;;;;;;;-4.29;46.96;101081.34;5055359;28;20492;-78
2022/01/23 10:13:04;;;;;;;118.75;51.30;;;;;;;-4.28;47.48;101076.16;5056028;28;20070;-77
2022/01/23 10:15:31;;;;;;;130.60;53.22;;;;;;;-4.18;47.31;101077.09;5022219;28;20484;-79
2022/01/23 10:17:58;;;;;;;148.40;58.88;;;;;;;-4.23;47.91;101074.47;5039120;28;20036;-77
2022/01/23 10:20:24;;;;;;;133.60;52.88;;;;;;;-4.22;47.57;101070.09;5072577;28;20086;-78
2022/01/23 10:22:51;;;;;;;136.27;52.13;;;;;;;-4.17;47.71;101053.63;5055023;28;20040;-77
2022/01/23 10:25:23;;;;;;;142.75;51.63;;;;;;;-4.02;47.63;101052.00;5071986;28;20040;-79
2022/01/23 10:28:04;;;;;;;142.30;56.03;;;;;;;-3.96;47.16;101044.19;5055428;28;20436;-77
2022/01/23 10:30:40;;;;;;;142.82;55.92;;;;;;;-3.98;47.26;101032.88;5055290;28;20040;-79
2022/01/23 10:33:10;;;;;;;138.68;54.92;;;;;;;-3.89;46.91;101048.56;5071320;28;20060;-77
2022/01/23 10:36:05;;;;;;;129.43;52.47;;;;;;;-4.10;47.39;101058.88;5038463;28;20125;-77
2022/01/23 10:38:34;;;;;;;145.30;50.45;;;;;;;-4.26;47.38;101047.44;5038194;28;20127;-77
2022/01/23 10:49:58;;;;;;;120.50;47.88;;;;;;;-4.04;47.48;101082.44;5056882;28;20159;-77
2022/01/23 10:52:29;;;;;;;156.57;58.20;;;;;;;-4.13;46.95;101090.22;5039749;28;20049;-77
2022/01/23 10:54:55;;;;;;;207.48;71.63;;;;;;;-4.27;46.71;101093.56;5059339;28;20040;-78
2022/01/23 10:57:21;;;;;;;206.95;74.75;;;;;;;-4.25;46.97;101089.25;5074723;28;20053;-79
2022/01/23 10:59:49;;;;;;;191.73;68.97;;;;;;;-4.22;46.40;101091.00;5042290;28;20052;-79
2022/01/23 11:02:21;;;;;;;146.27;50.25;;;;;;;-4.30;46.66;101092.66;5042288;28;20392;-78
2022/01/23 11:04:58;;;;;;;111.97;45.15;;;;;;;-4.57;46.41;101083.75;5059786;28;20040;-77
2022/01/23 11:07:26;;;;;;;131.15;45.97;;;;;;;-5.00;47.64;101074.59;5025932;28;20048;-77
2022/01/23 11:09:57;;;;;;;123.55;44.20;;;;;;;-5.15;47.52;101077.91;5042786;28;20056;-78
2022/01/23 11:12:45;;;;;;;123.10;43.00;;;;;;;-5.19;48.41;101094.34;5075980;28;20384;-78
2022/01/23 11:18:19;;;;;;;112.43;39.22;;;;;;;-5.07;47.78;101111.91;5058514;28;20048;-79
2022/01/23 11:20:47;;;;;;;109.03;42.13;;;;;;;-5.15;48.11;101114.44;5074826;28;20466;-77
2022/01/23 11:23:27;;;;;;;105.68;43.63;;;;;;;-5.22;47.81;101115.19;5075469;28;20041;-80
2022/01/23 11:25:56;;;;;;;113.07;43.92;;;;;;;-5.42;47.86;101133.16;5059477;28;20148;-77
2022/01/23 11:28:37;;;;;;;98.07;39.22;;;;;;;-5.99;48.14;101131.50;5074638;28;20044;-78
2022/01/23 11:31:09;;;;;;;98.88;38.92;;;;;;;-6.66;49.81;101137.28;5058631;28;20504;-79
2022/01/23 11:33:35;;;;;;;110.40;42.20;;;;;;;-7.00;50.55;101124.50;5025045;28;20036;-78
2022/01/23 11:36:02;;;;;;;115.57;43.53;;;;;;;-6.99;50.95;101134.06;5074352;28;20101;-78
2022/01/23 11:38:28;;;;;;;105.18;42.90;;;;;;;-6.81;50.91;101141.31;5041558;28;20065;-77
2022/01/23 11:54:51;;;;;;;118.07;44.95;;;;;;;-8.46;54.03;101196.47;5074291;28;20120;-77
2022/01/23 11:57:36;;;;;;;148.57;55.30;;;;;;;-8.92;54.76;101195.19;5057423;28;20048;-78
2022/01/23 12:00:16;;;;;;;174.23;61.53;;;;;;;-9.10;55.13;101205.00;5057731;28;20048;-79
2022/01/23 12:02:43;;;;;;;160.30;58.13;;;;;;;-9.36;55.88;101214.63;5074548;28;20048;-80
2022/01/23 12:05:15;;;;;;;148.32;52.20;;;;;;;-9.37;55.96;101225.78;5040267;28;20049;-78
2022/01/23 12:07:41;;;;;;;151.77;56.80;;;;;;;-9.72;56.76;101207.47;5075613;28;20139;-77
2022/01/23 12:10:21;;;;;;;158.82;52.28;;;;;;;-9.65;56.03;101201.66;5074366;28;20550;-78
2022/01/23 12:12:50;;;;;;;153.80;50.60;;;;;;;-9.58;56.19;101194.97;5059051;28;20049;-77
2022/01/23 12:18:21;;;;;;;116.55;48.33;;;;;;;-10.07;56.83;101178.75;5075267;28;20036;-77
2022/01/23 12:20:51;;;;;;;120.22;46.88;;;;;;;-10.13;56.87;101163.03;5057164;28;20067;-79
2022/01/23 12:23:17;;;;;;;141.75;49.90;;;;;;;-10.01;56.95;101172.88;5057593;28;20432;-78
2022/01/23 12:25:53;;;;;;;129.55;47.80;;;;;;;-9.99;56.66;101168.66;5056667;28;20135;-77
2022/01/23 12:28:28;;;;;;;117.43;46.83;;;;;;;-10.12;57.32;101164.78;5073553;28;20048;-82
2022/01/23 12:30:56;;;;;;;123.15;46.42;;;;;;;-10.13;57.76;101157.84;5041294;28;20049;-77
2022/01/23 12:33:43;;;;;;;126.78;48.95;;;;;;;-10.23;57.42;101160.97;5056513;28;20415;-76
2022/01/23 12:36:12;;;;;;;144.27;48.58;;;;;;;-10.31;57.49;101157.28;5073049;28;20037;-78
2022/01/23 12:38:46;;;;;;;137.20;50.80;;;;;;;-10.29;57.65;101168.56;5081623;28;20044;-78
2022/01/23 12:41:24;;;;;;;134.02;48.78;;;;;;;-10.45;58.01;101164.59;5057207;28;20063;-79
2022/01/23 12:44:24;;;;;;;144.80;50.28;;;;;;;-10.37;58.26;101177.78;5073637;28;20037;-79
2022/01/23 12:46:52;;;;;;;137.13;53.55;;;;;;;-10.37;58.31;101162.25;5070983;28;20047;-77
2022/01/23 12:49:35;;;;;;;143.23;50.80;;;;;;;-10.31;58.39;101168.50;5041254;28;20082;-80
2022/01/23 12:52:07;;;;;;;148.38;51.80;;;;;;;-10.24;58.62;101179.03;5077748;28;20411;-74
2022/01/23 12:54:46;;;;;;;160.85;58.95;;;;;;;-10.19;58.50;101193.88;5092906;28;20047;-78
2022/01/23 12:57:14;;;;;;;157.35;58.17;;;;;;;-10.19;58.70;101199.06;5060997;28;20407;-79
2022/01/23 12:59:42;;;;;;;164.70;59.97;;;;;;;-10.19;59.46;101191.28;5076336;28;20047;-78
2022/01/23 13:02:13;;;;;;;172.20;59.85;;;;;;;-10.15;59.54;101200.91;5059731;28;20528;-82
2022/01/23 13:04:44;;;;;;;164.00;61.20;;;;;;;-10.12;59.64;101192.34;5108846;27;20050;-81
2022/01/23 13:07:19;;;;;;;176.05;62.72;;;;;;;-10.03;60.30;101190.09;5049556;28;20043;-80
2022/01/23 13:26:47;;;;;;;171.88;60.20;;;;;;;-9.84;60.00;101202.78;5004543;28;20099;-81
2022/01/23 13:32:17;;;;;;;181.70;64.65;;;;;;;-9.94;59.57;101179.16;5022191;28;20053;-75
2022/01/23 13:35:04;;;;;;;193.45;70.18;;;;;;;-9.91;59.55;101168.91;5020725;28;20049;-78
2022/01/23 13:37:34;;;;;;;220.35;72.03;;;;;;;-9.91;59.71;101184.41;5013709;28;20631;-80
2022/01/23 13:40:04;;;;;;;;;;;;;;;-9.91;59.54;101184.41;5019126;28;20412;-78
2022/01/23 13:59:52;;;;;;;181.07;66.45;;;;;;;-10.19;59.98;101230.09;5050416;28;20395;-80
2022/01/23 14:02:30;;;;;;;179.82;68.80;;;;;;;-10.25;59.85;101226.44;5057050;28;20048;-78
2022/01/23 14:05:12;;;;;;;155.17;58.37;;;;;;;-10.56;60.03;101231.41;5073757;28;20534;-79
2022/01/23 14:07:40;;;;;;;156.15;55.45;;;;;;;-10.58;60.36;101235.63;5064231;28;20131;-78
2022/01/23 14:10:19;;;;;;;156.35;54.42;;;;;;;-10.53;60.75;101239.28;5083791;28;20048;-81
2022/01/23 14:12:48;;;;;;;167.63;56.67;;;;;;;-10.47;60.75;101242.91;5052820;28;20044;-78
2022/01/23 14:15:44;;;;;;;160.98;56.97;;;;;;;-10.48;60.74;101256.66;5050407;28;20121;-79
2022/01/23 14:18:17;;;;;;;133.75;48.20;;;;;;;-10.56;60.97;101262.44;5070505;28;20047;-78
2022/01/23 14:20:44;;;;;;;146.60;50.47;;;;;;;-10.55;60.95;101260.72;5073004;28;20158;-77
2022/01/23 14:23:17;;;;;;;128.05;44.55;;;;;;;-10.54;60.97;101272.81;5071852;28;20044;-79
2022/01/23 14:26:00;;;;;;;129.88;47.50;;;;;;;-10.59;61.27;101251.97;5088659;28;20044;-78
2022/01/23 14:28:48;;;;;;;138.80;48.55;;;;;;;-10.61;61.25;101258.78;5055541;28;20079;-80
2022/01/23 14:31:19;;;;;;;149.13;47.60;;;;;;;-10.58;61.20;101266.66;5038132;28;20544;-79
2022/01/23 14:33:56;;;;;;;149.82;48.22;;;;;;;-10.62;61.43;101249.28;5055489;28;20114;-78
2022/01/23 14:36:27;;;;;;;133.30;49.35;;;;;;;-10.60;61.28;101252.81;5072368;28;20097;-79
2022/01/23 14:39:05;;;;;;;128.50;46.00;;;;;;;-10.74;61.59;101259.19;5055766;28;20052;-79
2022/01/23 14:41:33;;;;;;;160.18;48.40;;;;;;;-10.75;61.69;101262.59;5071809;28;20063;-80
2022/01/23 14:44:00;;;;;;;153.52;52.75;;;;;;;-10.76;61.43;101240.13;4998741;28;20060;-78
2022/01/23 14:46:29;;;;;;;145.18;49.58;;;;;;;-10.75;61.59;101241.94;5031397;28;20063;-80
2022/01/23 14:49:09;;;;;;;135.98;51.40;;;;;;;-10.81;61.54;101241.69;5015097;28;20045;-77
2022/01/23 14:51:38;;;;;;;156.23;53.70;;;;;;;-10.84;61.92;101244.16;5036262;28;20072;-78
2022/01/23 14:54:07;;;;;;;150.25;53.28;;;;;;;-11.01;61.61;101240.97;5025066;28;20049;-80